sensor_id;sensor_type;location;lat;lon;timestamp;pressure;altitude;pressure_sealevel;temperature;humidity
7200;BME280;3641;49.082;8.200;2023-03-19T00:02:15;99997.78;;;10.18;73.30
7200;BME280;3641;49.082;8.200;2023-03-19T00:04:42;100000.16;;;9.91;73.26
7200;BME280;3641;49.082;8.200;2023-03-19T00:07:10;100005.69;;;10.49;65.09
7200;BME280;3641;49.082;8.200;2023-03-19T00:09:36;100003.97;;;10.63;64.41
7200;BME280;3641;49.082;8.200;2023-03-19T00:12:04;100006.38;;;10.51;68.22
7200;BME280;3641;49.082;8.200;2023-03-19T00:14:31;100012.03;;;10.50;65.88
7200;BME280;3641;49.082;8.200;2023-03-19T00:16:57;100024.59;;;10.51;70.08
7200;BME280;3641;49.082;8.200;2023-03-19T00:19:24;100034.75;;;9.91;74.12
7200;BME280;3641;49.082;8.200;2023-03-19T00:21:50;100038.56;;;10.11;67.87
7200;BME280;3641;49.082;8.200;2023-03-19T00:24:18;100038.50;;;10.20;67.85
7200;BME280;3641;49.082;8.200;2023-03-19T00:26:45;100036.31;;;10.30;70.98
7200;BME280;3641;49.082;8.200;2023-03-19T00:29:12;100045.72;;;10.12;69.77
7200;BME280;3641;49.082;8.200;2023-03-19T00:31:39;100040.84;;;10.08;67.41
7200;BME280;3641;49.082;8.200;2023-03-19T00:34:07;100034.13;;;10.40;66.28
7200;BME280;3641;49.082;8.200;2023-03-19T00:36:34;100037.72;;;10.26;66.71
7200;BME280;3641;49.082;8.200;2023-03-19T00:39:01;100036.47;;;10.43;64.77
7200;BME280;3641;49.082;8.200;2023-03-19T00:41:29;100043.00;;;10.42;65.25
7200;BME280;3641;49.082;8.200;2023-03-19T00:43:56;100043.72;;;10.51;64.57
7200;BME280;3641;49.082;8.200;2023-03-19T00:46:24;100047.13;;;10.53;64.28
7200;BME280;3641;49.082;8.200;2023-03-19T00:48:51;100040.72;;;10.46;64.80
7200;BME280;3641;49.082;8.200;2023-03-19T00:51:20;100042.13;;;10.27;65.98
7200;BME280;3641;49.082;8.200;2023-03-19T00:53:48;100056.03;;;10.32;65.43
7200;BME280;3641;49.082;8.200;2023-03-19T00:56:15;100049.53;;;9.81;72.11
7200;BME280;3641;49.082;8.200;2023-03-19T00:58:44;100052.88;;;9.98;71.23
7200;BME280;3641;49.082;8.200;2023-03-19T01:01:12;100052.84;;;10.28;65.37
7200;BME280;3641;49.082;8.200;2023-03-19T01:03:40;100054.38;;;10.31;65.91
7200;BME280;3641;49.082;8.200;2023-03-19T01:06:06;100051.75;;;10.38;66.42
7200;BME280;3641;49.082;8.200;2023-03-19T01:08:33;100055.97;;;10.25;67.30
7200;BME280;3641;49.082;8.200;2023-03-19T01:11:04;100054.78;;;9.83;73.50
7200;BME280;3641;49.082;8.200;2023-03-19T01:13:31;100054.03;;;9.89;73.77
7200;BME280;3641;49.082;8.200;2023-03-19T01:15:59;100054.31;;;9.94;70.54
7200;BME280;3641;49.082;8.200;2023-03-19T01:18:25;100054.75;;;10.13;66.71
7200;BME280;3641;49.082;8.200;2023-03-19T01:20:52;100057.00;;;10.24;66.19
7200;BME280;3641;49.082;8.200;2023-03-19T01:23:18;100059.72;;;10.24;65.83
7200;BME280;3641;49.082;8.200;2023-03-19T01:25:45;100065.66;;;10.28;65.87
7200;BME280;3641;49.082;8.200;2023-03-19T01:28:11;100067.72;;;10.26;69.47
7200;BME280;3641;49.082;8.200;2023-03-19T01:30:38;100072.09;;;10.05;66.72
7200;BME280;3641;49.082;8.200;2023-03-19T01:33:06;100079.31;;;9.83;70.57
7200;BME280;3641;49.082;8.200;2023-03-19T01:35:33;100079.22;;;9.91;67.97
7200;BME280;3641;49.082;8.200;2023-03-19T01:37:59;100090.69;;;9.72;72.84
7200;BME280;3641;49.082;8.200;2023-03-19T01:40:26;100086.16;;;9.94;71.45
7200;BME280;3641;49.082;8.200;2023-03-19T01:42:54;100094.28;;;10.02;68.85
7200;BME280;3641;49.082;8.200;2023-03-19T01:45:34;100087.03;;;9.94;67.38
7200;BME280;3641;49.082;8.200;2023-03-19T01:48:01;100095.78;;;9.90;68.02
7200;BME280;3641;49.082;8.200;2023-03-19T01:50:35;100089.44;;;9.74;70.06
7200;BME280;3641;49.082;8.200;2023-03-19T01:53:04;100083.84;;;9.91;67.83
7200;BME280;3641;49.082;8.200;2023-03-19T01:55:30;100086.28;;;10.00;66.85
7200;BME280;3641;49.082;8.200;2023-03-19T01:57:56;100076.88;;;10.18;65.82
7200;BME280;3641;49.082;8.200;2023-03-19T02:00:23;100077.22;;;10.00;71.19
7200;BME280;3641;49.082;8.200;2023-03-19T02:02:52;100076.28;;;10.08;68.75
7200;BME280;3641;49.082;8.200;2023-03-19T02:05:22;100073.28;;;10.17;65.18
7200;BME280;3641;49.082;8.200;2023-03-19T02:07:54;100081.94;;;10.21;65.79
7200;BME280;3641;49.082;8.200;2023-03-19T02:10:21;100083.00;;;10.05;66.69
7200;BME280;3641;49.082;8.200;2023-03-19T02:12:48;100079.28;;;10.13;66.15
7200;BME280;3641;49.082;8.200;2023-03-19T02:15:15;100076.88;;;10.18;66.03
7200;BME280;3641;49.082;8.200;2023-03-19T02:17:42;100074.78;;;10.20;65.34
7200;BME280;3641;49.082;8.200;2023-03-19T02:20:16;100075.53;;;10.14;65.94
7200;BME280;3641;49.082;8.200;2023-03-19T02:22:54;100070.44;;;10.26;65.11
7200;BME280;3641;49.082;8.200;2023-03-19T02:25:27;100072.72;;;10.22;65.28
7200;BME280;3641;49.082;8.200;2023-03-19T02:28:00;100078.25;;;10.29;64.81
7200;BME280;3641;49.082;8.200;2023-03-19T02:30:28;100078.44;;;10.27;65.46
7200;BME280;3641;49.082;8.200;2023-03-19T02:32:56;100074.22;;;10.25;65.22
7200;BME280;3641;49.082;8.200;2023-03-19T02:35:22;100083.94;;;9.97;70.13
7200;BME280;3641;49.082;8.200;2023-03-19T02:37:49;100084.34;;;9.56;72.57
7200;BME280;3641;49.082;8.200;2023-03-19T02:40:19;100079.66;;;9.65;72.39
7200;BME280;3641;49.082;8.200;2023-03-19T02:42:47;100075.84;;;10.04;68.46
7200;BME280;3641;49.082;8.200;2023-03-19T02:45:16;100078.66;;;10.11;66.16
7200;BME280;3641;49.082;8.200;2023-03-19T02:47:42;100079.00;;;9.78;71.75
7200;BME280;3641;49.082;8.200;2023-03-19T02:50:09;100085.09;;;9.65;71.64
7200;BME280;3641;49.082;8.200;2023-03-19T02:52:37;100090.47;;;9.58;72.84
7200;BME280;3641;49.082;8.200;2023-03-19T02:55:04;100082.22;;;9.81;68.46
7200;BME280;3641;49.082;8.200;2023-03-19T02:57:32;100081.84;;;9.99;67.29
7200;BME280;3641;49.082;8.200;2023-03-19T02:59:58;100089.47;;;10.04;66.99
7200;BME280;3641;49.082;8.200;2023-03-19T03:02:26;100090.31;;;9.75;69.53
7200;BME280;3641;49.082;8.200;2023-03-19T03:04:53;100095.31;;;10.01;66.41
7200;BME280;3641;49.082;8.200;2023-03-19T03:07:19;100099.13;;;10.07;66.23
7200;BME280;3641;49.082;8.200;2023-03-19T03:09:46;100093.59;;;10.00;67.15
7200;BME280;3641;49.082;8.200;2023-03-19T03:12:13;100094.34;;;9.94;67.89
7200;BME280;3641;49.082;8.200;2023-03-19T03:14:39;100096.41;;;9.92;70.35
7200;BME280;3641;49.082;8.200;2023-03-19T03:17:06;100098.78;;;9.95;67.76
7200;BME280;3641;49.082;8.200;2023-03-19T03:19:35;100102.28;;;10.04;66.62
7200;BME280;3641;49.082;8.200;2023-03-19T03:22:02;100101.31;;;9.96;68.23
7200;BME280;3641;49.082;8.200;2023-03-19T03:24:29;100096.22;;;10.08;66.35
7200;BME280;3641;49.082;8.200;2023-03-19T03:26:56;100100.56;;;10.03;70.85
7200;BME280;3641;49.082;8.200;2023-03-19T03:29:22;100095.50;;;9.99;67.22
7200;BME280;3641;49.082;8.200;2023-03-19T03:31:49;100099.53;;;10.04;66.76
7200;BME280;3641;49.082;8.200;2023-03-19T03:34:16;100097.66;;;10.04;66.99
7200;BME280;3641;49.082;8.200;2023-03-19T03:36:46;100102.72;;;10.07;68.38
7200;BME280;3641;49.082;8.200;2023-03-19T03:39:13;100102.72;;;10.07;66.88
7200;BME280;3641;49.082;8.200;2023-03-19T03:41:40;100106.94;;;10.10;67.22
7200;BME280;3641;49.082;8.200;2023-03-19T03:44:06;100109.59;;;10.03;67.57
7200;BME280;3641;49.082;8.200;2023-03-19T03:46:33;100110.91;;;10.07;66.98
7200;BME280;3641;49.082;8.200;2023-03-19T03:48:59;100114.19;;;10.03;67.72
7200;BME280;3641;49.082;8.200;2023-03-19T03:51:26;100112.13;;;10.05;67.13
7200;BME280;3641;49.082;8.200;2023-03-19T03:53:54;100110.63;;;10.02;70.62
7200;BME280;3641;49.082;8.200;2023-03-19T03:56:20;100116.66;;;9.97;68.95
7200;BME280;3641;49.082;8.200;2023-03-19T03:58:47;100124.75;;;9.91;68.02
7200;BME280;3641;49.082;8.200;2023-03-19T04:01:14;100123.31;;;9.95;68.58
7200;BME280;3641;49.082;8.200;2023-03-19T04:03:41;100121.69;;;9.86;70.64
7200;BME280;3641;49.082;8.200;2023-03-19T04:06:08;100120.78;;;9.78;70.16
7200;BME280;3641;49.082;8.200;2023-03-19T04:08:38;100124.59;;;9.84;68.34
7200;BME280;3641;49.082;8.200;2023-03-19T04:11:07;100130.81;;;9.78;70.10
7200;BME280;3641;49.082;8.200;2023-03-19T04:13:33;100142.31;;;9.88;68.10
7200;BME280;3641;49.082;8.200;2023-03-19T04:16:01;100138.16;;;9.92;67.64
7200;BME280;3641;49.082;8.200;2023-03-19T04:18:27;100123.88;;;9.90;70.61
7200;BME280;3641;49.082;8.200;2023-03-19T04:20:54;100132.34;;;9.95;68.09
7200;BME280;3641;49.082;8.200;2023-03-19T04:23:21;100130.47;;;9.96;67.98
7200;BME280;3641;49.082;8.200;2023-03-19T04:25:48;100133.75;;;9.91;68.57
7200;BME280;3641;49.082;8.200;2023-03-19T04:28:16;100136.75;;;9.96;67.66
7200;BME280;3641;49.082;8.200;2023-03-19T04:30:42;100128.41;;;9.98;67.73
7200;BME280;3641;49.082;8.200;2023-03-19T04:33:09;100130.19;;;9.91;69.53
7200;BME280;3641;49.082;8.200;2023-03-19T04:35:36;100132.69;;;9.77;71.47
7200;BME280;3641;49.082;8.200;2023-03-19T04:38:02;100126.97;;;9.87;69.18
7200;BME280;3641;49.082;8.200;2023-03-19T04:40:29;100133.09;;;9.89;70.84
7200;BME280;3641;49.082;8.200;2023-03-19T04:42:56;100131.03;;;9.91;68.68
7200;BME280;3641;49.082;8.200;2023-03-19T04:45:24;100128.38;;;9.83;69.85
7200;BME280;3641;49.082;8.200;2023-03-19T04:47:51;100128.38;;;9.83;70.14
7200;BME280;3641;49.082;8.200;2023-03-19T04:50:18;100140.59;;;9.87;69.08
7200;BME280;3641;49.082;8.200;2023-03-19T04:52:44;100140.88;;;9.92;68.16
7200;BME280;3641;49.082;8.200;2023-03-19T04:55:11;100142.78;;;9.92;68.38
7200;BME280;3641;49.082;8.200;2023-03-19T04:57:38;100137.13;;;9.93;68.96
7200;BME280;3641;49.082;8.200;2023-03-19T05:00:06;100141.66;;;9.86;68.91
7200;BME280;3641;49.082;8.200;2023-03-19T05:02:34;100147.09;;;9.86;68.99
7200;BME280;3641;49.082;8.200;2023-03-19T05:05:01;100145.69;;;9.90;68.62
7200;BME280;3641;49.082;8.200;2023-03-19T05:07:28;100136.84;;;9.73;74.57
7200;BME280;3641;49.082;8.200;2023-03-19T05:09:55;100136.88;;;9.65;73.40
7200;BME280;3641;49.082;8.200;2023-03-19T05:12:21;100135.59;;;9.61;72.29
7200;BME280;3641;49.082;8.200;2023-03-19T05:14:48;100140.16;;;9.60;71.90
7200;BME280;3641;49.082;8.200;2023-03-19T05:17:14;100135.66;;;9.53;76.67
7200;BME280;3641;49.082;8.200;2023-03-19T05:19:42;100142.47;;;9.34;76.33
7200;BME280;3641;49.082;8.200;2023-03-19T05:22:09;100155.97;;;9.27;78.03
7200;BME280;3641;49.082;8.200;2023-03-19T05:24:36;100150.78;;;9.55;72.19
7200;BME280;3641;49.082;8.200;2023-03-19T05:27:02;100154.28;;;9.64;72.32
7200;BME280;3641;49.082;8.200;2023-03-19T05:29:29;100149.78;;;9.71;74.21
7200;BME280;3641;49.082;8.200;2023-03-19T05:31:55;100151.38;;;9.66;73.41
7200;BME280;3641;49.082;8.200;2023-03-19T05:34:22;100154.13;;;9.80;69.95
7200;BME280;3641;49.082;8.200;2023-03-19T05:36:50;100146.72;;;9.89;69.32
7200;BME280;3641;49.082;8.200;2023-03-19T05:39:16;100155.66;;;9.83;71.83
7200;BME280;3641;49.082;8.200;2023-03-19T05:41:43;100156.84;;;9.80;71.45
7200;BME280;3641;49.082;8.200;2023-03-19T05:44:10;100157.91;;;9.94;68.46
7200;BME280;3641;49.082;8.200;2023-03-19T05:46:36;100147.47;;;9.83;71.78
7200;BME280;3641;49.082;8.200;2023-03-19T05:49:03;100157.19;;;10.00;68.11
7200;BME280;3641;49.082;8.200;2023-03-19T05:51:30;100155.28;;;10.01;68.72
7200;BME280;3641;49.082;8.200;2023-03-19T05:53:58;100161.31;;;9.96;70.24
7200;BME280;3641;49.082;8.200;2023-03-19T05:56:25;100160.47;;;9.96;68.72
7200;BME280;3641;49.082;8.200;2023-03-19T05:58:51;100160.66;;;10.09;68.52
7200;BME280;3641;49.082;8.200;2023-03-19T06:01:18;100150.69;;;10.02;68.33
7200;BME280;3641;49.082;8.200;2023-03-19T06:03:44;100164.78;;;9.90;70.88
7200;BME280;3641;49.082;8.200;2023-03-19T06:06:11;100167.13;;;9.93;70.23
7200;BME280;3641;49.082;8.200;2023-03-19T06:08:38;100167.31;;;10.07;68.31
7200;BME280;3641;49.082;8.200;2023-03-19T06:11:06;100173.53;;;10.00;70.64
7200;BME280;3641;49.082;8.200;2023-03-19T06:13:32;100165.66;;;10.06;69.29
7200;BME280;3641;49.082;8.200;2023-03-19T06:15:59;100164.59;;;10.07;67.55
7200;BME280;3641;49.082;8.200;2023-03-19T06:18:26;100161.81;;;10.15;67.19
7200;BME280;3641;49.082;8.200;2023-03-19T06:20:52;100169.13;;;10.14;68.21
7200;BME280;3641;49.082;8.200;2023-03-19T06:23:19;100166.69;;;10.20;66.95
7200;BME280;3641;49.082;8.200;2023-03-19T06:25:45;100174.75;;;10.13;68.41
7200;BME280;3641;49.082;8.200;2023-03-19T06:28:13;100172.53;;;10.16;67.39
7200;BME280;3641;49.082;8.200;2023-03-19T06:30:41;100170.16;;;10.28;66.49
7200;BME280;3641;49.082;8.200;2023-03-19T06:33:07;100173.38;;;10.17;68.72
7200;BME280;3641;49.082;8.200;2023-03-19T06:35:34;100180.72;;;10.16;68.54
7200;BME280;3641;49.082;8.200;2023-03-19T06:38:01;100186.03;;;10.10;69.77
7200;BME280;3641;49.082;8.200;2023-03-19T06:40:27;100180.16;;;10.21;68.10
7200;BME280;3641;49.082;8.200;2023-03-19T06:42:54;100184.19;;;10.25;67.06
7200;BME280;3641;49.082;8.200;2023-03-19T06:45:22;100184.19;;;10.25;67.54
7200;BME280;3641;49.082;8.200;2023-03-19T06:47:49;100183.81;;;10.28;67.76
7200;BME280;3641;49.082;8.200;2023-03-19T06:50:16;100189.25;;;10.28;67.12
7200;BME280;3641;49.082;8.200;2023-03-19T06:52:43;100189.38;;;10.35;66.50
7200;BME280;3641;49.082;8.200;2023-03-19T06:55:10;100192.13;;;10.35;67.02
7200;BME280;3641;49.082;8.200;2023-03-19T06:57:36;100189.00;;;10.38;66.61
7200;BME280;3641;49.082;8.200;2023-03-19T07:00:04;100193.91;;;10.43;66.23
7200;BME280;3641;49.082;8.200;2023-03-19T07:02:32;100205.56;;;10.36;67.09
7200;BME280;3641;49.082;8.200;2023-03-19T07:04:59;100199.00;;;10.46;66.51
7200;BME280;3641;49.082;8.200;2023-03-19T07:07:26;100195.81;;;10.42;66.89
7200;BME280;3641;49.082;8.200;2023-03-19T07:09:52;100205.94;;;10.33;68.15
7200;BME280;3641;49.082;8.200;2023-03-19T07:12:19;100201.53;;;10.32;68.52
7200;BME280;3641;49.082;8.200;2023-03-19T07:14:45;100203.50;;;10.39;67.90
7200;BME280;3641;49.082;8.200;2023-03-19T07:17:13;100202.69;;;10.53;66.95
7200;BME280;3641;49.082;8.200;2023-03-19T07:19:41;100205.97;;;10.48;67.29
7200;BME280;3641;49.082;8.200;2023-03-19T07:22:07;100212.53;;;10.54;67.24
7200;BME280;3641;49.082;8.200;2023-03-19T07:24:34;100210.88;;;10.53;67.75
7200;BME280;3641;49.082;8.200;2023-03-19T07:27:01;100209.91;;;10.61;66.27
7200;BME280;3641;49.082;8.200;2023-03-19T07:29:27;100210.38;;;10.64;66.52
7200;BME280;3641;49.082;8.200;2023-03-19T07:31:54;100208.50;;;10.65;66.44
7200;BME280;3641;49.082;8.200;2023-03-19T07:34:21;100212.25;;;10.64;67.09
7200;BME280;3641;49.082;8.200;2023-03-19T07:36:49;100215.47;;;10.67;67.68
7200;BME280;3641;49.082;8.200;2023-03-19T07:39:17;100219.13;;;10.75;66.00
7200;BME280;3641;49.082;8.200;2023-03-19T07:41:44;100226.66;;;10.72;66.36
7200;BME280;3641;49.082;8.200;2023-03-19T07:44:13;100225.91;;;10.79;66.24
7200;BME280;3641;49.082;8.200;2023-03-19T07:46:40;100221.47;;;10.78;66.47
7200;BME280;3641;49.082;8.200;2023-03-19T07:49:06;100215.63;;;10.81;65.79
7200;BME280;3641;49.082;8.200;2023-03-19T07:51:33;100220.97;;;10.89;65.83
7200;BME280;3641;49.082;8.200;2023-03-19T07:54:01;100227.78;;;10.93;65.80
7200;BME280;3641;49.082;8.200;2023-03-19T07:56:27;100220.22;;;10.95;65.35
7200;BME280;3641;49.082;8.200;2023-03-19T07:58:54;100220.59;;;10.92;65.50
7200;BME280;3641;49.082;8.200;2023-03-19T08:01:21;100217.94;;;10.99;65.58
7200;BME280;3641;49.082;8.200;2023-03-19T08:03:47;100221.56;;;10.99;65.32
7200;BME280;3641;49.082;8.200;2023-03-19T08:06:14;100226.41;;;11.04;65.81
7200;BME280;3641;49.082;8.200;2023-03-19T08:08:41;100225.38;;;11.05;65.16
7200;BME280;3641;49.082;8.200;2023-03-19T08:11:09;100223.09;;;11.08;64.69
7200;BME280;3641;49.082;8.200;2023-03-19T08:13:35;100223.00;;;11.17;64.63
7200;BME280;3641;49.082;8.200;2023-03-19T08:16:02;100227.81;;;11.15;64.37
7200;BME280;3641;49.082;8.200;2023-03-19T08:18:29;100229.59;;;11.22;64.38
7200;BME280;3641;49.082;8.200;2023-03-19T08:20:55;100218.28;;;11.25;64.17
7200;BME280;3641;49.082;8.200;2023-03-19T08:23:22;100219.19;;;11.33;64.57
7200;BME280;3641;49.082;8.200;2023-03-19T08:25:48;100228.25;;;11.33;63.85
7200;BME280;3641;49.082;8.200;2023-03-19T08:28:21;100227.00;;;11.36;63.50
7200;BME280;3641;49.082;8.200;2023-03-19T08:30:48;100225.84;;;11.45;64.02
7200;BME280;3641;49.082;8.200;2023-03-19T08:33:15;100228.94;;;11.42;64.28
7200;BME280;3641;49.082;8.200;2023-03-19T08:35:42;100229.22;;;11.47;64.59
7200;BME280;3641;49.082;8.200;2023-03-19T08:38:11;100230.72;;;11.50;65.00
7200;BME280;3641;49.082;8.200;2023-03-19T08:40:37;100240.88;;;11.56;64.62
7200;BME280;3641;49.082;8.200;2023-03-19T08:43:04;100243.81;;;11.54;64.37
7200;BME280;3641;49.082;8.200;2023-03-19T08:45:33;100244.06;;;11.59;64.80
7200;BME280;3641;49.082;8.200;2023-03-19T08:48:02;100235.84;;;11.59;65.13
7200;BME280;3641;49.082;8.200;2023-03-19T08:50:36;100241.59;;;11.64;65.51
7200;BME280;3641;49.082;8.200;2023-03-19T08:53:02;100238.28;;;11.69;64.74
7200;BME280;3641;49.082;8.200;2023-03-19T08:55:29;100240.81;;;11.71;65.05
7200;BME280;3641;49.082;8.200;2023-03-19T08:57:56;100245.63;;;11.69;65.04
7200;BME280;3641;49.082;8.200;2023-03-19T09:00:23;100250.78;;;11.78;64.40
7200;BME280;3641;49.082;8.200;2023-03-19T09:02:50;100250.72;;;11.93;64.11
7200;BME280;3641;49.082;8.200;2023-03-19T09:05:17;100254.97;;;11.96;63.95
7200;BME280;3641;49.082;8.200;2023-03-19T09:07:46;100245.19;;;12.08;63.80
7200;BME280;3641;49.082;8.200;2023-03-19T09:10:15;100252.59;;;12.14;63.03
7200;BME280;3641;49.082;8.200;2023-03-19T09:12:41;100249.09;;;12.21;60.63
7200;BME280;3641;49.082;8.200;2023-03-19T09:15:08;100253.94;;;12.25;61.10
7200;BME280;3641;49.082;8.200;2023-03-19T09:17:35;100252.34;;;12.38;60.58
7200;BME280;3641;49.082;8.200;2023-03-19T09:20:06;100252.66;;;12.49;59.41
7200;BME280;3641;49.082;8.200;2023-03-19T09:22:33;100251.44;;;12.59;59.93
7200;BME280;3641;49.082;8.200;2023-03-19T09:25:01;100245.66;;;12.75;58.60
7200;BME280;3641;49.082;8.200;2023-03-19T09:27:27;100254.53;;;12.84;58.08
7200;BME280;3641;49.082;8.200;2023-03-19T09:29:54;100253.28;;;12.86;58.41
7200;BME280;3641;49.082;8.200;2023-03-19T09:32:24;100246.94;;;12.86;57.93
7200;BME280;3641;49.082;8.200;2023-03-19T09:34:50;100248.41;;;12.82;60.42
7200;BME280;3641;49.082;8.200;2023-03-19T09:37:18;100240.03;;;12.90;59.34
7200;BME280;3641;49.082;8.200;2023-03-19T09:39:45;100250.16;;;12.89;60.01
7200;BME280;3641;49.082;8.200;2023-03-19T09:42:24;100255.44;;;12.91;59.86
7200;BME280;3641;49.082;8.200;2023-03-19T09:44:53;100250.19;;;12.96;58.60
7200;BME280;3641;49.082;8.200;2023-03-19T09:47:26;100243.47;;;12.99;59.83
7200;BME280;3641;49.082;8.200;2023-03-19T09:49:54;100246.00;;;13.00;59.85
7200;BME280;3641;49.082;8.200;2023-03-19T09:52:40;100255.44;;;12.98;58.95
7200;BME280;3641;49.082;8.200;2023-03-19T09:55:15;100253.53;;;12.98;58.98
7200;BME280;3641;49.082;8.200;2023-03-19T09:57:46;100272.94;;;12.97;60.51
7200;BME280;3641;49.082;8.200;2023-03-19T10:00:20;100257.75;;;12.94;59.68
7200;BME280;3641;49.082;8.200;2023-03-19T10:02:51;100253.16;;;13.01;60.59
7200;BME280;3641;49.082;8.200;2023-03-19T10:05:26;100244.31;;;13.06;59.98
7200;BME280;3641;49.082;8.200;2023-03-19T10:08:15;100249.38;;;13.09;59.98
7200;BME280;3641;49.082;8.200;2023-03-19T10:10:51;100250.78;;;13.33;60.20
7200;BME280;3641;49.082;8.200;2023-03-19T10:13:38;100246.00;;;13.62;58.07
7200;BME280;3641;49.082;8.200;2023-03-19T10:16:12;100239.25;;;13.58;57.67
7200;BME280;3641;49.082;8.200;2023-03-19T10:18:48;100244.28;;;13.54;58.05
7200;BME280;3641;49.082;8.200;2023-03-19T10:21:19;100248.09;;;13.60;58.49
7200;BME280;3641;49.082;8.200;2023-03-19T10:23:53;100242.63;;;13.67;55.67
7200;BME280;3641;49.082;8.200;2023-03-19T10:26:27;100243.28;;;13.82;57.17
7200;BME280;3641;49.082;8.200;2023-03-19T10:29:03;100247.72;;;14.10;57.28
7200;BME280;3641;49.082;8.200;2023-03-19T10:31:39;100249.19;;;14.32;56.70
7200;BME280;3641;49.082;8.200;2023-03-19T10:34:17;100245.19;;;14.42;54.89
7200;BME280;3641;49.082;8.200;2023-03-19T10:36:46;100241.59;;;14.41;56.50
7200;BME280;3641;49.082;8.200;2023-03-19T10:39:15;100245.81;;;14.44;56.03
7200;BME280;3641;49.082;8.200;2023-03-19T10:41:47;100239.22;;;14.58;52.73
7200;BME280;3641;49.082;8.200;2023-03-19T10:44:26;100250.28;;;14.31;53.74
7200;BME280;3641;49.082;8.200;2023-03-19T10:46:56;100238.66;;;14.36;53.83
7200;BME280;3641;49.082;8.200;2023-03-19T10:49:24;100249.84;;;14.28;52.95
7200;BME280;3641;49.082;8.200;2023-03-19T10:51:51;100241.41;;;14.36;52.95
7200;BME280;3641;49.082;8.200;2023-03-19T10:54:21;100236.94;;;14.35;53.07
7200;BME280;3641;49.082;8.200;2023-03-19T10:56:49;100253.66;;;14.27;54.01
7200;BME280;3641;49.082;8.200;2023-03-19T10:59:24;100260.19;;;14.26;56.04
7200;BME280;3641;49.082;8.200;2023-03-19T11:01:56;100246.25;;;14.27;55.05
7200;BME280;3641;49.082;8.200;2023-03-19T11:04:24;100256.16;;;14.48;55.17
7200;BME280;3641;49.082;8.200;2023-03-19T11:06:52;100248.78;;;14.62;53.11
7200;BME280;3641;49.082;8.200;2023-03-19T11:09:27;100244.13;;;14.63;53.09
7200;BME280;3641;49.082;8.200;2023-03-19T11:11:58;100250.88;;;14.67;54.91
7200;BME280;3641;49.082;8.200;2023-03-19T11:14:34;100244.97;;;14.63;53.25
7200;BME280;3641;49.082;8.200;2023-03-19T11:17:04;100246.44;;;14.52;55.25
7200;BME280;3641;49.082;8.200;2023-03-19T11:19:39;100245.16;;;14.48;56.07
7200;BME280;3641;49.082;8.200;2023-03-19T11:22:15;100250.44;;;14.50;54.69
7200;BME280;3641;49.082;8.200;2023-03-19T11:24:51;100252.16;;;14.38;54.65
7200;BME280;3641;49.082;8.200;2023-03-19T11:29:54;100240.94;;;14.52;55.77
7200;BME280;3641;49.082;8.200;2023-03-19T11:32:44;100244.31;;;14.61;54.80
7200;BME280;3641;49.082;8.200;2023-03-19T11:35:19;100234.38;;;14.74;55.29
7200;BME280;3641;49.082;8.200;2023-03-19T11:37:53;100243.47;;;14.67;56.14
7200;BME280;3641;49.082;8.200;2023-03-19T11:40:30;100237.31;;;14.79;55.07
7200;BME280;3641;49.082;8.200;2023-03-19T11:46:31;100232.66;;;14.86;53.45
7200;BME280;3641;49.082;8.200;2023-03-19T11:49:10;100232.06;;;14.70;54.87
7200;BME280;3641;49.082;8.200;2023-03-19T11:51:45;100231.19;;;14.57;53.86
7200;BME280;3641;49.082;8.200;2023-03-19T11:54:21;100232.06;;;14.57;56.86
7200;BME280;3641;49.082;8.200;2023-03-19T11:56:55;100235.84;;;14.56;55.67
7200;BME280;3641;49.082;8.200;2023-03-19T12:00:02;100233.78;;;14.38;55.39
7200;BME280;3641;49.082;8.200;2023-03-19T12:05:30;100241.16;;;14.31;56.04
7200;BME280;3641;49.082;8.200;2023-03-19T12:08:06;100237.19;;;14.27;55.94
7200;BME280;3641;49.082;8.200;2023-03-19T12:10:43;100243.31;;;14.22;56.19
7200;BME280;3641;49.082;8.200;2023-03-19T12:13:29;100239.06;;;14.20;55.90
7200;BME280;3641;49.082;8.200;2023-03-19T12:16:07;100247.09;;;14.14;56.82
7200;BME280;3641;49.082;8.200;2023-03-19T12:18:57;100245.19;;;14.15;56.11
7200;BME280;3641;49.082;8.200;2023-03-19T12:21:33;100244.56;;;13.99;56.99
7200;BME280;3641;49.082;8.200;2023-03-19T12:24:10;100237.81;;;14.02;57.28
7200;BME280;3641;49.082;8.200;2023-03-19T12:26:48;100233.59;;;14.06;57.59
7200;BME280;3641;49.082;8.200;2023-03-19T12:29:27;100241.00;;;14.06;57.05
7200;BME280;3641;49.082;8.200;2023-03-19T12:32:13;100235.06;;;13.95;58.31
7200;BME280;3641;49.082;8.200;2023-03-19T12:34:46;100236.13;;;14.01;59.35
7200;BME280;3641;49.082;8.200;2023-03-19T12:37:18;100234.00;;;14.03;60.18
7200;BME280;3641;49.082;8.200;2023-03-19T12:39:53;100235.28;;;14.01;61.32
7200;BME280;3641;49.082;8.200;2023-03-19T12:42:31;100237.59;;;14.04;62.88
7200;BME280;3641;49.082;8.200;2023-03-19T12:45:07;100247.53;;;13.91;64.49
7200;BME280;3641;49.082;8.200;2023-03-19T12:47:41;100245.59;;;13.72;64.93
7200;BME280;3641;49.082;8.200;2023-03-19T12:50:15;100244.94;;;13.63;65.91
7200;BME280;3641;49.082;8.200;2023-03-19T12:52:46;100245.16;;;13.61;65.28
7200;BME280;3641;49.082;8.200;2023-03-19T12:55:19;100248.78;;;13.75;63.93
7200;BME280;3641;49.082;8.200;2023-03-19T12:57:50;100244.97;;;13.83;63.58
7200;BME280;3641;49.082;8.200;2023-03-19T13:00:25;100241.38;;;13.83;64.04
7200;BME280;3641;49.082;8.200;2023-03-19T13:03:01;100243.72;;;13.72;64.53
7200;BME280;3641;49.082;8.200;2023-03-19T13:05:33;100244.34;;;13.68;63.87
7200;BME280;3641;49.082;8.200;2023-03-19T13:08:09;100250.44;;;13.76;63.41
7200;BME280;3641;49.082;8.200;2023-03-19T13:10:38;100250.44;;;13.56;64.67
7200;BME280;3641;49.082;8.200;2023-03-19T13:13:18;100247.69;;;13.56;64.58
7200;BME280;3641;49.082;8.200;2023-03-19T13:15:56;100251.28;;;13.63;64.80
7200;BME280;3641;49.082;8.200;2023-03-19T13:18:34;100247.69;;;13.70;64.41
7200;BME280;3641;49.082;8.200;2023-03-19T13:21:15;100253.19;;;13.76;64.73
7200;BME280;3641;49.082;8.200;2023-03-19T13:23:48;100251.31;;;13.77;64.11
7200;BME280;3641;49.082;8.200;2023-03-19T13:26:17;100247.50;;;13.65;66.61
7200;BME280;3641;49.082;8.200;2023-03-19T13:28:58;100256.97;;;13.69;66.82
7200;BME280;3641;49.082;8.200;2023-03-19T13:31:28;100246.88;;;13.69;67.52
7200;BME280;3641;49.082;8.200;2023-03-19T13:34:03;100246.47;;;13.79;65.44